Nelsonville, Wisconsin
Current Conditions -  °F | °C
As of 6:15 PM on Sunday 23 Nov 2014 (Local Time) from KSTE Reporting Station
Haze Haze  
Wind Chill: 44°   Ceiling: 500
Heat Index: 44°   Visibility: 5mi
Dew Point: 44°   Wind: 3mph
Humidity: 100%   Direction: 120°ESE
Pressure: 29.36"   Gusts: NA
Location:  44.49°N, 89.31°W
Report Text: KSTE 240015Z AUTO 12003KT 5SM BR OVC005 07/07 A2936 RMK AO2 T00650065
Loading
Personal Weather Stations






























Interactive Weather Map New forecast layout! Learn more

10-Day Weather Forecast

Advertisements
Track Severe Weather on mobile